createdAt,value
2022-08-14T00:02:07.253Z,69.20
2022-08-14T00:04:42.453Z,69.20
2022-08-14T00:07:14.139Z,69.20
2022-08-14T00:10:01.589Z,69.30
2022-08-14T00:12:48.280Z,69.30
2022-08-14T00:15:43.880Z,69.90
2022-08-14T00:19:05.376Z,70.20
2022-08-14T00:21:01.808Z,70.30
2022-08-14T00:23:29.961Z,70.00
2022-08-14T00:26:05.722Z,70.20
2022-08-14T00:28:36.179Z,70.60
2022-08-14T00:31:06.551Z,70.50
2022-08-14T00:33:52.311Z,70.20
2022-08-14T00:36:36.954Z,70.10
2022-08-14T00:39:11.532Z,70.40
2022-08-14T00:41:38.935Z,70.60
2022-08-14T00:44:07.064Z,70.90
2022-08-14T00:46:36.278Z,71.20
2022-08-14T00:49:03.798Z,71.60
2022-08-14T00:51:34.672Z,71.90
2022-08-14T00:54:21.316Z,72.20
2022-08-14T00:56:55.211Z,72.40
2022-08-14T00:59:24.981Z,72.90
2022-08-14T01:01:54.417Z,72.90
2022-08-14T01:04:38.478Z,73.10
2022-08-14T01:07:10.637Z,73.10
2022-08-14T01:09:39.236Z,72.90
2022-08-14T01:12:07.936Z,72.70
2022-08-14T01:14:35.747Z,72.90
2022-08-14T01:17:02.853Z,73.00
2022-08-14T01:19:49.407Z,73.20
2022-08-14T01:22:19.198Z,73.50
2022-08-14T01:24:47.351Z,73.80
2022-08-14T01:27:17.635Z,74.10
2022-08-14T01:30:03.825Z,74.30
2022-08-14T01:32:37.434Z,74.60
2022-08-14T01:35:17.357Z,74.90
2022-08-14T01:37:54.450Z,75.30
2022-08-14T01:40:33.142Z,75.70
2022-08-14T01:43:03.665Z,76.10
2022-08-14T01:45:35.710Z,76.30
2022-08-14T01:48:13.906Z,76.30
2022-08-14T01:50:42.210Z,76.90
2022-08-14T01:53:09.603Z,76.90
2022-08-14T01:55:40.301Z,76.90
2022-08-14T01:58:19.666Z,77.20
2022-08-14T02:00:54.383Z,77.00
2022-08-14T02:03:30.097Z,77.50
2022-08-14T02:06:04.069Z,77.70
2022-08-14T02:08:53.209Z,77.80
2022-08-14T02:11:22.705Z,77.80
2022-08-14T02:13:53.744Z,78.20
2022-08-14T02:16:26.428Z,78.40
2022-08-14T02:18:59.433Z,78.80
2022-08-14T02:21:31.990Z,78.40
2022-08-14T02:24:39.014Z,78.50
2022-08-14T02:28:25.369Z,78.90
2022-08-14T02:30:00.190Z,79.20
2022-08-14T02:32:46.886Z,79.10
2022-08-14T02:35:19.279Z,79.20
2022-08-14T02:37:50.110Z,79.30
2022-08-14T02:40:32.584Z,79.20
2022-08-14T02:43:02.607Z,79.70
2022-08-14T02:45:38.625Z,79.60
2022-08-14T02:49:03.319Z,80.00
2022-08-14T02:51:00.781Z,80.40
2022-08-14T02:53:33.499Z,80.50
2022-08-14T02:56:03.049Z,80.80
2022-08-14T02:58:32.309Z,80.70
2022-08-14T03:01:01.432Z,81.90
2022-08-14T03:03:31.762Z,81.30
2022-08-14T03:05:58.877Z,81.30
2022-08-14T03:08:31.781Z,81.30
2022-08-14T03:11:07.753Z,81.60
2022-08-14T03:13:42.835Z,81.90
2022-08-14T03:16:20.171Z,81.90
2022-08-14T03:18:59.796Z,82.10
2022-08-14T03:21:27.256Z,82.10
2022-08-14T03:24:21.737Z,82.50
2022-08-14T03:26:49.917Z,82.70
2022-08-14T03:29:26.233Z,83.30
2022-08-14T03:31:53.868Z,83.50
2022-08-14T03:34:24.910Z,83.70
2022-08-14T03:39:09.423Z,83.70
2022-08-14T03:40:00.455Z,83.70
2022-08-14T03:42:31.098Z,83.90
2022-08-14T03:45:18.905Z,83.90
2022-08-14T03:47:58.416Z,84.50
2022-08-14T03:50:27.932Z,84.50
2022-08-14T03:53:03.273Z,84.70
2022-08-14T03:55:31.032Z,85.30
2022-08-14T03:58:00.376Z,85.20
2022-08-14T04:00:43.575Z,85.30
2022-08-14T04:03:18.032Z,86.10
2022-08-14T04:05:50.405Z,86.00
2022-08-14T04:08:23.102Z,86.20
2022-08-14T04:10:57.530Z,86.50
2022-08-14T04:13:25.104Z,86.10
2022-08-14T04:16:01.402Z,86.20
2022-08-14T04:18:33.718Z,86.50
2022-08-14T04:21:01.195Z,86.50
2022-08-14T04:23:29.636Z,86.30
2022-08-14T04:26:01.613Z,86.50
2022-08-14T04:29:06.742Z,86.60
2022-08-14T04:31:25.063Z,86.50
2022-08-14T04:34:07.952Z,86.80
2022-08-14T04:36:55.356Z,86.50
2022-08-14T04:39:46.491Z,86.20
2022-08-14T04:42:32.363Z,86.10
2022-08-14T04:45:00.812Z,86.20
2022-08-14T04:47:46.734Z,86.10
2022-08-14T04:50:25.864Z,86.40
2022-08-14T04:53:00.832Z,86.50
2022-08-14T04:55:29.986Z,86.90
2022-08-14T04:57:57.873Z,87.40
2022-08-14T05:00:27.421Z,86.80
2022-08-14T05:02:56.494Z,86.70
2022-08-14T05:05:25.085Z,86.60
2022-08-14T05:08:01.325Z,86.70
2022-08-14T05:10:32.188Z,86.90
2022-08-14T05:13:13.483Z,86.90
2022-08-14T05:15:43.699Z,87.20
2022-08-14T05:18:17.681Z,87.20
2022-08-14T05:21:54.366Z,87.10
2022-08-14T05:23:50.662Z,87.10
2022-08-14T05:26:18.235Z,87.30
2022-08-14T05:28:46.483Z,87.30
2022-08-14T05:31:20.747Z,87.40
2022-08-14T05:33:56.420Z,87.40
2022-08-14T05:36:25.213Z,87.30
2022-08-14T05:38:54.083Z,87.40
2022-08-14T05:41:22.443Z,87.50
2022-08-14T05:43:51.164Z,87.50
2022-08-14T05:46:22.897Z,87.50
2022-08-14T05:48:56.276Z,87.60
2022-08-14T05:51:25.440Z,87.40
2022-08-14T05:54:01.746Z,87.60
2022-08-14T05:56:39.064Z,88.00
2022-08-14T05:59:06.259Z,87.40
2022-08-14T06:01:34.834Z,87.70
2022-08-14T06:04:04.625Z,87.70
2022-08-14T06:06:36.736Z,87.70
2022-08-14T06:09:05.745Z,88.30
2022-08-14T06:11:37.224Z,87.90
2022-08-14T06:14:04.498Z,88.10
2022-08-14T06:16:39.688Z,88.00
2022-08-14T06:19:11.303Z,87.60
2022-08-14T06:21:45.362Z,87.60
2022-08-14T06:24:18.166Z,87.80
2022-08-14T06:26:54.148Z,87.60
2022-08-14T06:29:23.489Z,87.40
2022-08-14T06:32:00.099Z,87.10
2022-08-14T06:35:10.433Z,87.10
2022-08-14T06:37:16.861Z,87.20
2022-08-14T06:39:44.371Z,87.30
2022-08-14T06:42:18.282Z,87.60
2022-08-14T06:45:02.881Z,87.90
2022-08-14T06:47:30.060Z,87.00
2022-08-14T06:49:57.849Z,86.70
2022-08-14T06:52:25.374Z,86.40
2022-08-14T06:54:52.337Z,86.20
2022-08-14T06:57:19.435Z,85.40
2022-08-14T06:59:48.681Z,85.00
2022-08-14T07:02:36.082Z,84.50
2022-08-14T07:05:23.294Z,84.50
2022-08-14T07:07:51.545Z,84.10
2022-08-14T07:10:18.881Z,83.10
2022-08-14T07:13:01.367Z,82.90
2022-08-14T07:15:29.628Z,82.30
2022-08-14T07:18:00.393Z,82.30
2022-08-14T07:20:31.090Z,82.00
2022-08-14T07:23:07.650Z,81.90
2022-08-14T07:25:37.718Z,81.80
2022-08-14T07:28:20.401Z,81.80
2022-08-14T07:33:18.494Z,80.80
2022-08-14T07:35:58.529Z,81.40
2022-08-14T07:38:32.118Z,81.00
2022-08-14T07:41:03.641Z,80.30
2022-08-14T07:43:39.568Z,81.00
2022-08-14T07:46:07.590Z,79.90
2022-08-14T07:48:39.535Z,79.70
2022-08-14T07:51:11.213Z,79.90
2022-08-14T07:53:40.769Z,79.40
2022-08-14T07:56:21.813Z,79.10
2022-08-14T07:58:58.416Z,78.90
2022-08-14T08:01:27.993Z,78.00
2022-08-14T08:06:29.587Z,77.00
2022-08-14T08:09:01.184Z,77.60
2022-08-14T08:11:34.881Z,77.40
2022-08-14T08:14:10.745Z,77.30
2022-08-14T08:16:46.547Z,76.30
2022-08-14T08:19:14.060Z,76.10
2022-08-14T08:21:43.560Z,77.30
2022-08-14T08:24:11.280Z,75.40
2022-08-14T08:26:41.827Z,75.10
2022-08-14T08:29:09.592Z,74.90
2022-08-14T08:31:52.259Z,74.90
2022-08-14T08:34:23.683Z,73.60
2022-08-14T08:36:52.702Z,73.90
2022-08-14T08:39:22.232Z,73.50
2022-08-14T08:41:50.663Z,73.80
2022-08-14T08:44:32.156Z,74.30
2022-08-14T08:47:05.585Z,73.90
2022-08-14T08:49:59.465Z,73.10
2022-08-14T08:52:42.386Z,73.30
2022-08-14T08:55:23.715Z,72.60
2022-08-14T08:57:56.910Z,73.00
2022-08-14T09:00:26.512Z,72.10
2022-08-14T09:02:57.504Z,71.00
2022-08-14T09:05:25.221Z,70.70
2022-08-14T09:07:56.710Z,69.80
2022-08-14T09:10:23.862Z,70.40
2022-08-14T09:12:56.247Z,70.50
2022-08-14T09:15:24.197Z,69.10
2022-08-14T09:17:52.020Z,69.60
2022-08-14T09:20:25.803Z,69.40
2022-08-14T09:22:55.083Z,69.10
2022-08-14T09:25:58.718Z,68.70
2022-08-14T09:28:09.564Z,68.00
2022-08-14T09:30:40.304Z,68.40
2022-08-14T09:33:33.198Z,66.80
2022-08-14T09:36:12.141Z,68.70
2022-08-14T09:42:21.747Z,89.50
2022-08-14T09:45:08.483Z,67.00
2022-08-14T09:47:49.172Z,66.40
2022-08-14T09:52:56.740Z,66.30
2022-08-14T09:55:26.209Z,64.50
2022-08-14T09:58:19.301Z,64.40
2022-08-14T10:01:01.898Z,62.70
2022-08-14T10:03:36.344Z,61.10
2022-08-14T10:06:19.471Z,60.30
2022-08-14T10:09:03.098Z,62.30
2022-08-14T10:11:37.927Z,63.80
2022-08-14T10:14:29.438Z,64.10
2022-08-14T10:17:06.517Z,61.20
2022-08-14T10:19:35.955Z,63.40
2022-08-14T10:23:13.738Z,63.10
2022-08-14T10:24:56.343Z,60.80
2022-08-14T10:27:26.576Z,61.50
2022-08-14T10:30:00.831Z,59.60
2022-08-14T10:32:36.605Z,60.70
2022-08-14T10:35:13.585Z,60.30
2022-08-14T10:37:48.586Z,59.10
2022-08-14T10:40:38.629Z,59.50
2022-08-14T10:43:36.943Z,60.80
2022-08-14T10:47:36.207Z,60.70
2022-08-14T10:49:04.498Z,61.20
2022-08-14T10:51:36.239Z,61.10
2022-08-14T10:54:26.011Z,60.60
2022-08-14T10:56:56.019Z,59.90
2022-08-14T10:59:35.450Z,59.30
2022-08-14T11:02:44.953Z,58.80
2022-08-14T11:05:18.471Z,58.70
2022-08-14T11:07:55.350Z,59.50
2022-08-14T11:10:40.878Z,58.60
2022-08-14T11:13:10.541Z,58.90
2022-08-14T11:15:38.000Z,58.40
2022-08-14T11:18:08.593Z,57.90
2022-08-14T11:20:41.580Z,57.10
2022-08-14T11:23:10.958Z,57.10
2022-08-14T11:25:43.809Z,58.00
2022-08-14T11:28:46.863Z,57.60
2022-08-14T11:31:14.039Z,57.10
2022-08-14T11:33:41.581Z,56.60
2022-08-14T11:36:18.447Z,55.40
2022-08-14T11:38:46.975Z,55.20
2022-08-14T11:41:17.338Z,57.10
2022-08-14T11:43:58.184Z,57.10
2022-08-14T11:46:30.619Z,55.90
2022-08-14T11:49:06.375Z,56.10
2022-08-14T11:51:50.732Z,56.80
2022-08-14T11:54:20.569Z,56.60
2022-08-14T11:57:02.384Z,56.30
2022-08-14T11:59:33.878Z,56.70
2022-08-14T12:03:03.454Z,56.30
2022-08-14T12:05:03.888Z,56.80
2022-08-14T12:07:32.147Z,56.10
2022-08-14T12:09:59.581Z,55.90
2022-08-14T12:12:36.029Z,57.20
2022-08-14T12:15:07.009Z,57.10
2022-08-14T12:17:47.612Z,57.20
2022-08-14T12:20:30.012Z,57.60
2022-08-14T12:23:00.737Z,57.10
2022-08-14T12:25:27.682Z,56.20
2022-08-14T12:28:01.220Z,56.00
2022-08-14T12:30:43.573Z,56.60
2022-08-14T12:33:30.756Z,57.10
2022-08-14T12:36:00.704Z,57.10
2022-08-14T12:38:44.935Z,57.00
2022-08-14T12:41:23.994Z,57.60
2022-08-14T12:43:53.647Z,57.00
2022-08-14T12:46:27.423Z,57.40
2022-08-14T12:48:57.369Z,57.10
2022-08-14T12:51:27.021Z,57.30
2022-08-14T12:53:59.672Z,57.20
2022-08-14T12:56:34.060Z,57.20
2022-08-14T12:59:02.021Z,56.00
2022-08-14T13:01:56.756Z,56.90
2022-08-14T13:04:18.793Z,57.10
2022-08-14T13:06:51.303Z,56.70
2022-08-14T13:09:23.196Z,57.20
2022-08-14T13:11:59.318Z,57.00
2022-08-14T13:14:47.799Z,57.10
2022-08-14T13:17:15.947Z,57.20
2022-08-14T13:19:45.422Z,56.50
2022-08-14T13:22:32.012Z,56.70
2022-08-14T13:25:02.876Z,57.30
2022-08-14T13:27:33.771Z,57.80
2022-08-14T13:30:10.218Z,56.00
2022-08-14T13:32:40.579Z,56.00
2022-08-14T13:35:11.998Z,55.80
2022-08-14T13:37:41.527Z,56.50
2022-08-14T13:40:09.315Z,57.10
2022-08-14T13:42:44.294Z,57.00
2022-08-14T13:45:12.521Z,56.90
2022-08-14T13:47:42.399Z,56.90
2022-08-14T13:50:20.354Z,57.00
2022-08-14T13:52:55.139Z,57.60
2022-08-14T13:55:28.087Z,56.50
2022-08-14T13:58:04.852Z,56.60
2022-08-14T14:00:52.924Z,56.60
2022-08-14T14:03:23.778Z,57.20
2022-08-14T14:05:54.224Z,56.70
2022-08-14T14:08:45.751Z,57.00
2022-08-14T14:11:10.418Z,57.30
2022-08-14T14:13:44.707Z,57.30
2022-08-14T14:16:15.229Z,57.00
2022-08-14T14:18:59.556Z,57.50
2022-08-14T14:21:30.680Z,57.20
2022-08-14T14:23:59.596Z,57.80
2022-08-14T14:26:29.478Z,58.50
2022-08-14T14:29:01.787Z,58.70
2022-08-14T14:31:31.394Z,58.20
2022-08-14T14:34:07.543Z,58.60
2022-08-14T14:36:52.735Z,58.40
2022-08-14T14:39:27.486Z,58.40
2022-08-14T14:41:59.720Z,58.30
2022-08-14T14:44:41.331Z,58.40
2022-08-14T14:47:11.171Z,59.00
2022-08-14T14:49:51.434Z,58.90
2022-08-14T14:52:27.144Z,59.90
2022-08-14T14:54:59.260Z,59.30
2022-08-14T14:57:35.823Z,59.40
2022-08-14T15:00:18.553Z,59.00
2022-08-14T15:02:52.453Z,60.00
2022-08-14T15:05:20.623Z,58.90
2022-08-14T15:07:49.785Z,58.10
2022-08-14T15:10:26.760Z,59.30
2022-08-14T15:13:00.182Z,59.30
2022-08-14T15:15:27.432Z,59.50
2022-08-14T15:17:54.671Z,60.30
2022-08-14T15:20:29.777Z,59.10
2022-08-14T15:23:01.096Z,58.80
2022-08-14T15:25:40.254Z,59.60
2022-08-14T15:28:11.485Z,59.70
2022-08-14T15:30:41.464Z,59.60
2022-08-14T15:33:09.280Z,60.40
2022-08-14T15:35:37.986Z,59.60
2022-08-14T15:38:13.781Z,59.40
2022-08-14T15:40:51.659Z,59.70
2022-08-14T15:43:27.298Z,58.90
2022-08-14T15:45:57.946Z,59.10
2022-08-14T15:48:25.738Z,57.90
2022-08-14T15:50:57.245Z,58.40
2022-08-14T15:53:24.828Z,58.10
2022-08-14T15:55:58.284Z,57.90
2022-08-14T15:58:25.867Z,58.10
2022-08-14T16:01:12.833Z,58.00
2022-08-14T16:03:42.429Z,57.60
2022-08-14T16:06:17.452Z,58.30
2022-08-14T16:08:50.310Z,58.00
2022-08-14T16:11:26.308Z,57.20
2022-08-14T16:13:57.562Z,56.90
2022-08-14T16:16:50.902Z,57.50
2022-08-14T16:19:18.798Z,57.30
2022-08-14T16:22:02.126Z,56.80
2022-08-14T16:25:02.286Z,56.70
2022-08-14T16:27:39.456Z,57.50
2022-08-14T16:30:20.760Z,58.10
2022-08-14T16:32:56.103Z,58.10
2022-08-14T16:35:41.894Z,57.60
2022-08-14T16:38:19.804Z,57.80
2022-08-14T16:41:27.283Z,58.00
2022-08-14T16:44:04.685Z,57.20
2022-08-14T16:46:43.501Z,57.00
2022-08-14T16:49:15.610Z,56.80
2022-08-14T16:51:45.121Z,57.60
2022-08-14T16:54:34.132Z,57.70
2022-08-14T16:57:26.006Z,57.90
2022-08-14T16:59:57.723Z,57.30
2022-08-14T17:02:42.791Z,57.40
2022-08-14T17:05:21.075Z,57.10
2022-08-14T17:08:07.324Z,57.60
2022-08-14T17:10:53.349Z,57.30
2022-08-14T17:13:58.120Z,56.90
2022-08-14T17:16:24.276Z,57.20
2022-08-14T17:19:00.744Z,57.40
2022-08-14T17:21:40.894Z,57.50
2022-08-14T17:27:05.168Z,57.60
2022-08-14T17:29:44.286Z,57.60
2022-08-14T17:32:28.346Z,57.30
2022-08-14T17:34:57.665Z,57.60
2022-08-14T17:37:40.215Z,57.10
2022-08-14T17:40:17.823Z,57.30
2022-08-14T17:42:53.552Z,57.30
2022-08-14T17:45:43.244Z,57.50
2022-08-14T17:49:15.515Z,57.30
2022-08-14T17:51:23.954Z,57.00
2022-08-14T17:54:02.933Z,57.20
2022-08-14T17:56:34.173Z,57.10
2022-08-14T17:59:06.989Z,57.50
2022-08-14T18:01:46.372Z,57.00
2022-08-14T18:04:24.467Z,57.30
2022-08-14T18:07:16.677Z,56.80
2022-08-14T18:09:56.352Z,58.10
2022-08-14T18:12:36.746Z,57.50
2022-08-14T18:15:14.390Z,58.20
2022-08-14T18:17:52.521Z,58.00
2022-08-14T18:21:42.569Z,58.00
2022-08-14T18:23:18.478Z,58.40
2022-08-14T18:25:52.669Z,59.40
2022-08-14T18:28:46.561Z,59.40
2022-08-14T18:31:22.809Z,59.90
2022-08-14T18:33:58.770Z,59.60
2022-08-14T18:36:47.235Z,58.80
2022-08-14T18:39:31.712Z,59.80
2022-08-14T18:42:04.739Z,61.90
2022-08-14T18:44:50.924Z,61.90
2022-08-14T18:47:22.019Z,62.10
2022-08-14T18:49:55.883Z,62.20
2022-08-14T18:52:34.508Z,62.10
2022-08-14T18:55:25.708Z,62.40
2022-08-14T18:57:58.231Z,62.60
2022-08-14T19:00:51.285Z,62.70
2022-08-14T19:03:18.629Z,62.90
2022-08-14T19:05:49.716Z,61.80
2022-08-14T19:08:22.120Z,61.60
2022-08-14T19:10:59.360Z,62.00
2022-08-14T19:13:48.630Z,68.30
2022-08-14T19:21:41.923Z,83.80
2022-08-14T19:24:43.739Z,71.60
2022-08-14T19:27:23.911Z,68.70
2022-08-14T19:30:20.529Z,64.90
2022-08-14T19:32:53.079Z,62.50
2022-08-14T19:35:48.643Z,63.00
2022-08-14T19:38:46.546Z,62.90
2022-08-14T19:41:22.134Z,62.90
2022-08-14T19:43:56.830Z,62.80
2022-08-14T19:46:37.736Z,63.10
2022-08-14T19:49:21.377Z,63.50
2022-08-14T19:51:50.411Z,63.70
2022-08-14T19:54:21.137Z,63.80
2022-08-14T19:56:54.122Z,63.80
2022-08-14T19:59:23.664Z,64.00
2022-08-14T20:01:52.592Z,64.40
2022-08-14T20:04:47.378Z,64.90
2022-08-14T20:08:00.640Z,64.90
2022-08-14T20:11:08.343Z,65.30
2022-08-14T20:13:32.628Z,65.30
2022-08-14T20:16:12.305Z,65.00
2022-08-14T20:18:51.996Z,65.50
2022-08-14T20:21:21.727Z,65.90
2022-08-14T20:23:49.667Z,65.80
2022-08-14T20:26:30.479Z,65.90
2022-08-14T20:29:04.737Z,66.10
2022-08-14T20:31:36.673Z,66.40
2022-08-14T20:34:18.985Z,66.50
2022-08-14T20:37:12.019Z,66.70
2022-08-14T20:39:45.415Z,66.90
2022-08-14T20:42:43.632Z,66.60
2022-08-14T20:45:27.788Z,67.10
2022-08-14T20:48:07.175Z,67.00
2022-08-14T20:50:45.030Z,67.40
2022-08-14T20:53:34.588Z,67.40
2022-08-14T20:56:28.303Z,67.60
2022-08-14T20:58:57.072Z,67.70
2022-08-14T21:01:24.843Z,68.00
2022-08-14T21:04:20.855Z,68.80
2022-08-14T21:07:23.967Z,68.10
2022-08-14T21:10:06.396Z,68.40
2022-08-14T21:13:09.311Z,68.40
2022-08-14T21:15:38.693Z,68.50
2022-08-14T21:18:07.525Z,68.60
2022-08-14T21:20:37.189Z,68.70
2022-08-14T21:23:07.986Z,68.70
2022-08-14T21:25:35.961Z,68.50
2022-08-14T21:30:56.132Z,67.70
2022-08-14T21:33:24.630Z,67.80
2022-08-14T21:35:55.800Z,67.70
2022-08-14T21:38:33.477Z,67.40
2022-08-14T21:41:50.022Z,67.50
2022-08-14T21:44:17.956Z,67.50
2022-08-14T21:46:56.652Z,67.60
2022-08-14T21:49:38.690Z,67.50
2022-08-14T21:52:51.346Z,67.60
2022-08-14T21:55:00.634Z,67.30
2022-08-14T21:57:55.905Z,67.20
2022-08-14T22:00:35.257Z,67.10
2022-08-14T22:03:09.025Z,66.90
2022-08-14T22:05:41.493Z,66.90
2022-08-14T22:08:12.401Z,66.90
2022-08-14T22:10:46.918Z,66.90
2022-08-14T22:13:22.669Z,67.00
2022-08-14T22:15:54.292Z,66.90
2022-08-14T22:18:35.041Z,66.70
2022-08-14T22:21:05.890Z,66.70
2022-08-14T22:23:35.771Z,66.90
2022-08-14T22:26:03.806Z,66.60
2022-08-14T22:28:32.700Z,66.70
2022-08-14T22:31:02.729Z,66.50
2022-08-14T22:33:31.191Z,66.80
2022-08-14T22:36:00.415Z,66.60
2022-08-14T22:38:35.536Z,66.60
2022-08-14T22:41:26.216Z,66.50
2022-08-14T22:43:53.790Z,66.80
2022-08-14T22:46:21.848Z,67.00
2022-08-14T22:48:51.304Z,66.90
2022-08-14T22:51:21.453Z,67.10
2022-08-14T22:53:52.487Z,67.10
2022-08-14T22:56:22.341Z,67.10
2022-08-14T22:59:01.435Z,67.10
2022-08-14T23:01:55.365Z,66.90
2022-08-14T23:04:35.822Z,67.10
2022-08-14T23:07:21.933Z,66.90
2022-08-14T23:09:57.627Z,66.90
2022-08-14T23:12:54.751Z,67.20
2022-08-14T23:15:24.192Z,66.50
2022-08-14T23:17:56.073Z,66.60
2022-08-14T23:20:23.711Z,66.70
2022-08-14T23:22:57.137Z,66.30
2022-08-14T23:25:57.367Z,66.30
2022-08-14T23:28:33.548Z,66.20
2022-08-14T23:31:08.339Z,66.80
2022-08-14T23:33:46.078Z,66.80
2022-08-14T23:36:32.015Z,67.20
2022-08-14T23:39:10.567Z,66.60
2022-08-14T23:41:46.283Z,67.00
2022-08-14T23:44:21.638Z,67.10
2022-08-14T23:46:52.688Z,67.40
2022-08-14T23:49:25.513Z,67.50
2022-08-14T23:52:51.035Z,67.40
2022-08-14T23:54:48.895Z,66.90
2022-08-14T23:57:19.178Z,67.20
2022-08-14T23:59:54.414Z,66.50
